createdAt,value
2022-11-14T00:01:29.997Z,90.20
2022-11-14T00:03:58.440Z,82.65
2022-11-14T00:06:26.839Z,78.82
2022-11-14T00:08:55.211Z,96.22
2022-11-14T00:11:23.778Z,92.70
2022-11-14T00:13:53.599Z,50.50
2022-11-14T00:16:21.941Z,92.20
2022-11-14T00:18:51.280Z,99.32
2022-11-14T00:21:19.570Z,76.47
2022-11-14T00:23:47.867Z,88.18
2022-11-14T00:26:16.203Z,85.70
2022-11-14T00:28:44.482Z,102.53
2022-11-14T00:31:14.368Z,51.88
2022-11-14T00:33:42.810Z,104.25
2022-11-14T00:36:11.084Z,107.93
2022-11-14T00:38:39.409Z,87.60
2022-11-14T00:41:07.866Z,118.05
2022-11-14T00:43:36.209Z,93.55
2022-11-14T00:46:04.853Z,84.47
2022-11-14T00:48:34.751Z,77.65
2022-11-14T00:51:03.110Z,49.45
2022-11-14T00:53:31.812Z,88.43
2022-11-14T00:56:00.202Z,60.15
2022-11-14T00:58:28.880Z,108.10
2022-11-14T01:00:57.550Z,65.80
2022-11-14T01:03:25.910Z,76.38
2022-11-14T01:05:55.671Z,57.83
2022-11-14T01:08:23.952Z,47.13
2022-11-14T01:10:52.804Z,49.40
2022-11-14T01:13:21.179Z,79.72
2022-11-14T01:15:50.589Z,45.40
2022-11-14T01:18:20.342Z,57.85
2022-11-14T01:20:49.781Z,32.00
2022-11-14T01:23:19.512Z,71.78
2022-11-14T01:25:47.829Z,55.37
2022-11-14T01:28:17.906Z,96.10
2022-11-14T01:30:46.707Z,72.38
2022-11-14T01:33:15.029Z,45.00
2022-11-14T01:35:43.318Z,56.40
2022-11-14T01:38:14.168Z,35.05
2022-11-14T01:40:44.659Z,42.58
2022-11-14T01:43:30.943Z,30.15
2022-11-14T01:46:02.054Z,49.13
2022-11-14T01:48:38.251Z,49.67
2022-11-14T01:51:17.188Z,42.63
2022-11-14T01:53:47.188Z,50.45
2022-11-14T01:56:20.605Z,42.65
2022-11-14T01:58:52.549Z,39.75
2022-11-14T02:01:20.893Z,59.70
2022-11-14T02:03:51.385Z,63.50
2022-11-14T02:06:22.373Z,49.70
2022-11-14T02:08:52.257Z,66.43
2022-11-14T02:11:22.053Z,40.63
2022-11-14T02:13:50.707Z,41.38
2022-11-14T02:16:19.043Z,61.30
2022-11-14T02:18:47.405Z,40.13
2022-11-14T02:21:17.030Z,86.35
2022-11-14T02:23:45.375Z,50.05
2022-11-14T02:26:13.743Z,39.58
2022-11-14T02:28:42.132Z,69.88
2022-11-14T02:31:10.444Z,45.95
2022-11-14T02:33:38.772Z,74.75
2022-11-14T02:36:07.962Z,69.45
2022-11-14T02:38:37.795Z,65.90
2022-11-14T02:41:06.303Z,43.70
2022-11-14T02:43:34.884Z,83.75
2022-11-14T02:46:05.840Z,46.65
2022-11-14T02:48:34.266Z,52.22
2022-11-14T02:51:02.552Z,36.15
2022-11-14T02:53:30.861Z,38.55
2022-11-14T02:56:00.541Z,34.78
2022-11-14T02:58:29.014Z,43.33
2022-11-14T03:01:19.284Z,45.25
2022-11-14T03:03:45.861Z,68.78
2022-11-14T03:06:14.211Z,34.65
2022-11-14T03:08:42.549Z,50.97
2022-11-14T03:11:12.315Z,40.83
2022-11-14T03:13:40.632Z,71.57
2022-11-14T03:16:11.181Z,36.05
2022-11-14T03:18:39.520Z,36.50
2022-11-14T03:21:08.393Z,44.45
2022-11-14T03:23:37.215Z,41.50
2022-11-14T03:26:07.995Z,57.03
2022-11-14T03:28:38.692Z,55.05
2022-11-14T03:33:35.545Z,44.13
2022-11-14T03:36:04.335Z,71.55
2022-11-14T03:38:32.974Z,79.75
2022-11-14T03:41:01.497Z,82.30
2022-11-14T03:43:32.996Z,102.82
2022-11-14T03:46:04.139Z,55.00
2022-11-14T03:48:33.072Z,50.95
2022-11-14T03:51:01.651Z,102.10
2022-11-14T03:53:30.003Z,84.43
2022-11-14T03:55:58.285Z,76.22
2022-11-14T03:58:26.946Z,121.57
2022-11-14T04:00:56.591Z,59.15
2022-11-14T04:03:26.585Z,118.72
2022-11-14T04:05:54.936Z,83.60
2022-11-14T04:08:23.317Z,93.07
2022-11-14T04:10:51.751Z,74.55
2022-11-14T04:13:20.166Z,39.72
2022-11-14T04:15:48.813Z,63.30
2022-11-14T04:18:17.165Z,86.82
2022-11-14T04:20:46.853Z,71.97
2022-11-14T04:23:15.202Z,68.87
2022-11-14T04:25:44.456Z,79.18
2022-11-14T04:28:13.227Z,44.58
2022-11-14T04:30:41.652Z,54.20
2022-11-14T04:33:10.007Z,52.80
2022-11-14T04:35:38.248Z,48.58
2022-11-14T04:38:08.117Z,51.80
2022-11-14T04:40:36.497Z,43.97
2022-11-14T04:43:05.681Z,54.67
2022-11-14T04:45:34.122Z,36.53
2022-11-14T04:48:02.434Z,29.98
2022-11-14T04:50:30.794Z,30.58
2022-11-14T04:52:59.169Z,51.92
2022-11-14T04:55:28.962Z,54.22
2022-11-14T04:57:58.081Z,65.68
2022-11-14T05:00:28.651Z,45.40
2022-11-14T05:02:57.055Z,51.53
2022-11-14T05:05:25.415Z,56.35
2022-11-14T05:07:53.761Z,35.45
2022-11-14T05:10:22.140Z,50.50
2022-11-14T05:12:54.380Z,85.22
2022-11-14T05:15:23.025Z,78.43
2022-11-14T05:17:51.358Z,73.93
2022-11-14T05:20:19.649Z,64.38
2022-11-14T05:22:47.992Z,62.72
2022-11-14T05:25:16.509Z,40.47
2022-11-14T05:27:44.875Z,69.88
2022-11-14T05:30:15.156Z,47.47
2022-11-14T05:32:43.427Z,42.40
2022-11-14T05:35:11.798Z,59.13
2022-11-14T05:37:40.094Z,80.47
2022-11-14T05:40:09.121Z,24.48
2022-11-14T05:42:37.449Z,41.30
2022-11-14T05:45:06.768Z,70.28
2022-11-14T05:47:36.473Z,35.90
2022-11-14T05:50:05.385Z,48.33
2022-11-14T05:52:33.761Z,54.88
2022-11-14T05:55:02.013Z,107.60
2022-11-14T05:57:31.503Z,34.63
2022-11-14T05:59:59.918Z,64.22
2022-11-14T06:02:28.434Z,62.05
2022-11-14T06:04:58.221Z,49.55
2022-11-14T06:07:26.632Z,60.20
2022-11-14T06:09:55.060Z,21.73
2022-11-14T06:12:23.502Z,52.63
2022-11-14T06:14:51.875Z,58.05
2022-11-14T06:17:20.208Z,54.53
2022-11-14T06:19:48.463Z,67.70
2022-11-14T06:22:18.147Z,53.28
2022-11-14T06:24:46.552Z,36.80
2022-11-14T06:27:15.017Z,35.55
2022-11-14T06:29:43.337Z,42.97
2022-11-14T06:32:11.762Z,56.00
2022-11-14T06:34:40.164Z,60.33
2022-11-14T06:37:08.598Z,43.60
2022-11-14T06:39:38.310Z,42.70
2022-11-14T06:42:06.891Z,45.63
2022-11-14T06:44:35.214Z,69.10
2022-11-14T06:47:03.631Z,28.45
2022-11-14T06:49:35.287Z,53.92
2022-11-14T06:52:06.267Z,44.58
2022-11-14T06:54:34.639Z,38.42
2022-11-14T06:57:04.428Z,44.92
2022-11-14T06:59:32.815Z,31.88
2022-11-14T07:02:01.218Z,32.28
2022-11-14T07:04:29.558Z,28.92
2022-11-14T07:06:58.038Z,40.60
2022-11-14T07:09:26.938Z,34.03
2022-11-14T07:11:55.262Z,39.65
2022-11-14T07:14:25.331Z,51.47
2022-11-14T07:16:53.747Z,38.33
2022-11-14T07:19:22.113Z,62.58
2022-11-14T07:21:50.539Z,59.00
2022-11-14T07:24:18.891Z,35.75
2022-11-14T07:26:47.336Z,71.55
2022-11-14T07:29:15.665Z,33.92
2022-11-14T07:31:45.447Z,30.83
2022-11-14T07:34:13.958Z,60.77
2022-11-14T07:36:42.646Z,64.63
2022-11-14T07:39:11.068Z,45.50
2022-11-14T07:41:40.914Z,66.78
2022-11-14T07:44:09.452Z,46.25
2022-11-14T07:46:37.865Z,43.03
2022-11-14T07:49:07.556Z,48.15
2022-11-14T07:51:35.921Z,59.53
2022-11-14T07:54:04.460Z,85.63
2022-11-14T07:56:32.766Z,81.13
2022-11-14T07:59:01.191Z,80.43
2022-11-14T08:01:29.768Z,45.45
2022-11-14T08:03:58.213Z,27.17
2022-11-14T08:06:28.626Z,67.47
2022-11-14T08:08:56.945Z,47.33
2022-11-14T08:11:39.092Z,53.17
2022-11-14T08:14:08.123Z,48.47
2022-11-14T08:16:36.506Z,76.72
2022-11-14T08:19:04.858Z,26.90
2022-11-14T08:21:34.582Z,47.45
2022-11-14T08:24:03.071Z,23.63
2022-11-14T08:26:34.316Z,49.90
2022-11-14T08:29:03.123Z,39.97
2022-11-14T08:31:31.481Z,35.40
2022-11-14T08:33:59.829Z,30.05
2022-11-14T08:36:28.132Z,24.25
2022-11-14T08:39:01.747Z,32.10
2022-11-14T08:41:30.681Z,26.33
2022-11-14T08:43:59.013Z,28.83
2022-11-14T08:46:27.350Z,37.38
2022-11-14T08:48:55.677Z,44.92
2022-11-14T08:51:24.149Z,52.35
2022-11-14T08:53:52.800Z,64.25
2022-11-14T08:56:22.560Z,44.78
2022-11-14T08:58:50.836Z,22.53
2022-11-14T09:01:19.170Z,19.75
2022-11-14T09:03:47.708Z,32.17
2022-11-14T09:06:16.091Z,54.05
2022-11-14T09:08:44.440Z,24.40
2022-11-14T09:11:15.469Z,34.13
2022-11-14T09:13:48.647Z,30.95
2022-11-14T09:16:17.049Z,20.37
2022-11-14T09:18:45.425Z,20.52
2022-11-14T09:21:13.799Z,13.23
2022-11-14T09:23:42.261Z,26.95
2022-11-14T09:26:11.147Z,32.33
2022-11-14T09:28:39.493Z,35.33
2022-11-14T09:31:12.445Z,23.48
2022-11-14T09:33:40.787Z,19.73
2022-11-14T09:36:11.426Z,14.65
2022-11-14T09:41:23.758Z,21.83
2022-11-14T09:44:20.056Z,29.38
2022-11-14T09:46:53.154Z,14.52
2022-11-14T09:49:27.692Z,13.52
2022-11-14T09:52:01.199Z,18.20
2022-11-14T09:54:33.206Z,9.90
2022-11-14T09:57:01.676Z,10.80
2022-11-14T09:59:30.476Z,9.73
2022-11-14T10:02:05.065Z,26.13
2022-11-14T10:04:45.152Z,10.35
2022-11-14T10:07:21.043Z,12.45
2022-11-14T10:09:58.680Z,14.52
2022-11-14T10:12:33.085Z,15.60
2022-11-14T10:15:10.282Z,16.20
2022-11-14T10:17:48.201Z,16.13
2022-11-14T10:20:23.655Z,16.45
2022-11-14T10:23:14.147Z,15.02
2022-11-14T10:25:51.000Z,15.80
2022-11-14T10:28:31.275Z,14.73
2022-11-14T10:31:06.962Z,14.80
2022-11-14T10:33:44.200Z,13.35
2022-11-14T10:36:16.575Z,16.25
2022-11-14T10:38:49.398Z,16.02
2022-11-14T10:41:41.731Z,16.52
2022-11-14T10:44:10.627Z,18.48
2022-11-14T10:46:40.640Z,19.83
2022-11-14T10:49:17.901Z,19.93
2022-11-14T10:51:49.122Z,21.70
2022-11-14T10:54:20.582Z,25.27
2022-11-14T10:56:49.566Z,23.83
2022-11-14T10:59:18.302Z,21.73
2022-11-14T11:01:54.663Z,19.80
2022-11-14T11:04:27.293Z,19.95
2022-11-14T11:06:57.926Z,22.83
2022-11-14T11:09:46.281Z,22.85
2022-11-14T11:12:19.948Z,24.20
2022-11-14T11:14:50.096Z,21.38
2022-11-14T11:17:21.641Z,22.13
2022-11-14T11:19:51.386Z,24.00
2022-11-14T11:22:28.427Z,22.53
2022-11-14T11:24:57.262Z,23.00
2022-11-14T11:27:27.559Z,22.63
2022-11-14T11:30:05.355Z,17.13
2022-11-14T11:32:33.769Z,14.15
2022-11-14T11:35:07.383Z,12.13
2022-11-14T11:37:42.866Z,12.23
2022-11-14T11:40:18.408Z,13.30
2022-11-14T11:45:37.926Z,13.27
2022-11-14T11:48:15.209Z,14.02
2022-11-14T11:50:45.146Z,14.55
2022-11-14T11:53:17.763Z,15.55
2022-11-14T11:55:48.101Z,14.30
2022-11-14T11:58:22.397Z,15.02
2022-11-14T12:00:55.077Z,14.15
2022-11-14T12:03:25.397Z,14.65
2022-11-14T12:05:59.571Z,13.25
2022-11-14T12:08:34.721Z,14.02
2022-11-14T12:11:04.088Z,14.63
2022-11-14T12:13:53.947Z,13.68
2022-11-14T12:16:29.926Z,13.83
2022-11-14T12:19:36.652Z,13.68
2022-11-14T12:22:28.274Z,13.50
2022-11-14T12:25:09.800Z,13.93
2022-11-14T12:27:56.585Z,14.52
2022-11-14T12:30:25.714Z,14.30
2022-11-14T12:32:57.503Z,14.32
2022-11-14T12:35:27.877Z,12.38
2022-11-14T12:37:58.539Z,12.75
2022-11-14T12:42:59.853Z,12.30
2022-11-14T12:46:01.385Z,10.95
2022-11-14T12:48:34.787Z,9.52
2022-11-14T12:51:04.079Z,12.13
2022-11-14T12:53:42.251Z,10.80
2022-11-14T12:56:38.557Z,11.13
2022-11-14T12:59:36.939Z,11.70
2022-11-14T13:02:37.818Z,11.85
2022-11-14T13:05:34.769Z,12.15
2022-11-14T13:08:12.584Z,11.82
2022-11-14T13:10:42.459Z,12.00
2022-11-14T13:13:29.863Z,13.90
2022-11-14T13:16:16.671Z,12.88
2022-11-14T13:19:13.269Z,13.82
2022-11-14T13:22:18.444Z,16.70
2022-11-14T13:25:17.044Z,18.35
2022-11-14T13:31:09.087Z,20.13
2022-11-14T13:33:44.423Z,18.42
2022-11-14T13:36:19.424Z,18.77
2022-11-14T13:39:20.632Z,22.27
2022-11-14T13:42:03.394Z,19.38
2022-11-14T13:44:44.895Z,19.90
2022-11-14T13:47:22.837Z,19.63
2022-11-14T13:50:00.185Z,21.63
2022-11-14T13:52:30.759Z,20.08
2022-11-14T13:57:37.387Z,20.05
2022-11-14T14:00:19.581Z,20.52
2022-11-14T14:02:55.313Z,20.50
2022-11-14T14:05:31.341Z,18.55
2022-11-14T14:08:15.352Z,19.08
2022-11-14T14:10:52.441Z,19.08
2022-11-14T14:13:30.679Z,19.92
2022-11-14T14:16:05.920Z,18.30
2022-11-14T14:18:45.140Z,22.45
2022-11-14T14:21:20.527Z,30.77
2022-11-14T14:23:54.637Z,19.30
2022-11-14T14:26:25.976Z,23.48
2022-11-14T14:29:05.966Z,18.10
2022-11-14T14:31:38.759Z,15.77
2022-11-14T14:34:22.612Z,18.75
2022-11-14T14:36:52.197Z,18.58
2022-11-14T14:39:22.630Z,15.18
2022-11-14T14:41:51.056Z,19.20
2022-11-14T14:44:23.851Z,15.77
2022-11-14T14:46:54.177Z,12.57
2022-11-14T14:49:25.111Z,13.50
2022-11-14T14:51:58.342Z,14.40
2022-11-14T14:54:29.406Z,15.98
2022-11-14T15:01:59.464Z,16.73
2022-11-14T15:04:28.719Z,25.17
2022-11-14T15:06:58.339Z,21.27
2022-11-14T15:09:29.555Z,111.80
2022-11-14T15:11:59.070Z,94.97
2022-11-14T15:14:29.244Z,45.95
2022-11-14T15:16:59.475Z,21.23
2022-11-14T15:19:32.567Z,20.15
2022-11-14T15:22:05.618Z,20.42
2022-11-14T15:24:33.966Z,21.27
2022-11-14T15:27:05.320Z,17.70
2022-11-14T15:29:33.980Z,21.50
2022-11-14T15:32:05.525Z,19.98
2022-11-14T15:34:35.687Z,17.02
2022-11-14T15:37:21.814Z,20.77
2022-11-14T15:39:50.223Z,19.88
2022-11-14T15:42:22.070Z,16.60
2022-11-14T15:44:51.286Z,19.95
2022-11-14T15:47:23.451Z,21.30
2022-11-14T15:50:00.463Z,18.08
2022-11-14T15:52:33.368Z,15.82
2022-11-14T15:55:02.014Z,20.15
2022-11-14T15:57:32.727Z,18.98
2022-11-14T16:00:01.083Z,19.33
2022-11-14T16:02:33.008Z,18.25
2022-11-14T16:05:02.306Z,21.40
2022-11-14T16:07:30.951Z,24.02
2022-11-14T16:09:59.320Z,20.27
2022-11-14T16:12:27.655Z,21.17
2022-11-14T16:14:55.978Z,24.50
2022-11-14T16:17:24.699Z,45.67
2022-11-14T16:19:54.497Z,23.83
2022-11-14T16:22:22.835Z,21.20
2022-11-14T16:24:51.133Z,20.05
2022-11-14T16:27:19.502Z,18.60
2022-11-14T16:29:47.789Z,21.67
2022-11-14T16:32:16.158Z,20.58
2022-11-14T16:34:44.473Z,22.60
2022-11-14T16:37:15.176Z,23.70
2022-11-14T16:42:12.168Z,21.10
2022-11-14T16:44:45.090Z,20.50
2022-11-14T16:47:16.254Z,21.15
2022-11-14T16:49:44.541Z,21.88
2022-11-14T16:52:16.672Z,23.15
2022-11-14T16:54:45.247Z,26.50
2022-11-14T16:57:13.615Z,23.02
2022-11-14T16:59:42.439Z,23.92
2022-11-14T17:02:14.451Z,19.67
2022-11-14T17:04:44.179Z,20.58
2022-11-14T17:07:18.869Z,21.87
2022-11-14T17:09:49.972Z,21.25
2022-11-14T17:12:18.349Z,21.55
2022-11-14T17:14:46.596Z,23.85
2022-11-14T17:17:15.039Z,21.98
2022-11-14T17:19:46.107Z,92.00
2022-11-14T17:22:17.217Z,75.82
2022-11-14T17:24:46.048Z,44.10
2022-11-14T17:27:14.420Z,33.60
2022-11-14T17:29:42.744Z,29.30
2022-11-14T17:32:10.981Z,26.95
2022-11-14T17:34:39.240Z,21.50
2022-11-14T17:37:07.588Z,24.90
2022-11-14T17:39:37.227Z,26.30
2022-11-14T17:42:07.356Z,24.58
2022-11-14T17:44:35.647Z,26.70
2022-11-14T17:47:03.920Z,23.90
2022-11-14T17:49:32.286Z,24.27
2022-11-14T17:52:00.594Z,24.30
2022-11-14T17:54:28.845Z,24.40
2022-11-14T17:56:59.945Z,26.38
2022-11-14T17:59:28.781Z,22.98
2022-11-14T18:01:59.966Z,23.92
2022-11-14T18:04:28.554Z,21.83
2022-11-14T18:06:56.907Z,21.50
2022-11-14T18:09:26.803Z,24.92
2022-11-14T18:11:55.158Z,20.83
2022-11-14T18:14:24.886Z,19.50
2022-11-14T18:19:41.574Z,21.80
2022-11-14T18:22:10.044Z,20.50
2022-11-14T18:24:41.487Z,16.70
2022-11-14T18:27:09.958Z,19.98
2022-11-14T18:29:39.658Z,18.58
2022-11-14T18:32:08.012Z,20.10
2022-11-14T18:34:37.682Z,19.15
2022-11-14T18:37:06.297Z,17.83
2022-11-14T18:39:34.666Z,17.50
2022-11-14T18:42:02.963Z,18.95
2022-11-14T18:44:31.592Z,20.98
2022-11-14T18:47:01.244Z,17.85
2022-11-14T18:49:29.583Z,19.03
2022-11-14T18:51:58.837Z,21.73
2022-11-14T18:54:30.695Z,20.67
2022-11-14T18:56:59.033Z,19.25
2022-11-14T18:59:28.004Z,19.30
2022-11-14T19:01:56.416Z,22.38
2022-11-14T19:04:26.191Z,18.15
2022-11-14T19:06:54.551Z,18.70
2022-11-14T19:09:24.211Z,20.58
2022-11-14T19:12:10.253Z,20.25
2022-11-14T19:14:38.615Z,21.02
2022-11-14T19:17:07.687Z,19.58
2022-11-14T19:19:37.381Z,20.98
2022-11-14T19:22:05.649Z,20.80
2022-11-14T19:24:34.037Z,18.67
2022-11-14T19:27:02.521Z,23.35
2022-11-14T19:29:30.900Z,22.33
2022-11-14T19:31:59.251Z,19.35
2022-11-14T19:34:27.956Z,19.05
2022-11-14T19:37:00.276Z,25.30
2022-11-14T19:39:29.636Z,23.35
2022-11-14T19:41:57.987Z,23.00
2022-11-14T19:44:26.289Z,22.30
2022-11-14T19:46:54.576Z,20.23
2022-11-14T19:49:22.965Z,16.52
2022-11-14T19:51:51.279Z,15.10
2022-11-14T19:54:20.940Z,18.40
2022-11-14T19:56:49.302Z,15.43
2022-11-14T19:59:21.572Z,15.63
2022-11-14T20:01:55.438Z,17.17
2022-11-14T20:04:24.035Z,19.90
2022-11-14T20:06:52.579Z,18.00
2022-11-14T20:09:22.475Z,19.23
2022-11-14T20:11:50.949Z,18.67
2022-11-14T20:14:19.654Z,19.85
2022-11-14T20:16:48.083Z,20.42
2022-11-14T20:19:17.021Z,19.27
2022-11-14T20:21:45.498Z,19.92
2022-11-14T20:24:17.608Z,19.35
2022-11-14T20:26:47.483Z,18.25
2022-11-14T20:29:15.874Z,17.42
2022-11-14T20:31:44.310Z,19.58
2022-11-14T20:34:12.986Z,20.25
2022-11-14T20:37:09.478Z,20.45
2022-11-14T20:39:29.871Z,22.20
2022-11-14T20:41:59.672Z,20.50
2022-11-14T20:44:28.118Z,22.27
2022-11-14T20:46:57.034Z,23.52
2022-11-14T20:49:25.685Z,21.25
2022-11-14T20:51:54.174Z,20.65
2022-11-14T20:54:22.593Z,18.42
2022-11-14T20:56:51.116Z,18.75
2022-11-14T20:59:20.927Z,17.60
2022-11-14T21:01:49.499Z,16.45
2022-11-14T21:04:18.309Z,13.85
2022-11-14T21:06:46.632Z,24.90
2022-11-14T21:09:15.105Z,16.48
2022-11-14T21:11:43.461Z,18.00
2022-11-14T21:14:12.423Z,15.52
2022-11-14T21:16:42.174Z,15.57
2022-11-14T21:19:10.581Z,15.67
2022-11-14T21:21:39.396Z,18.67
2022-11-14T21:24:08.604Z,19.95
2022-11-14T21:26:39.314Z,19.58
2022-11-14T21:31:39.079Z,22.58
2022-11-14T21:34:12.546Z,16.48
2022-11-14T21:36:46.035Z,18.88
2022-11-14T21:39:16.421Z,16.52
2022-11-14T21:41:45.678Z,18.88
2022-11-14T21:44:16.478Z,19.90
2022-11-14T21:46:46.385Z,18.70
2022-11-14T21:49:16.095Z,20.60
2022-11-14T21:51:44.453Z,24.53
2022-11-14T21:54:12.817Z,23.27
2022-11-14T21:56:41.195Z,27.75
2022-11-14T21:59:15.996Z,28.13
2022-11-14T22:02:03.761Z,28.67
2022-11-14T22:04:33.540Z,25.30
2022-11-14T22:07:03.333Z,20.63
2022-11-14T22:09:31.773Z,24.90
2022-11-14T22:12:01.323Z,21.70
2022-11-14T22:14:30.413Z,19.88
2022-11-14T22:16:59.000Z,21.63
2022-11-14T22:19:27.287Z,20.52
2022-11-14T22:21:56.985Z,20.13
2022-11-14T22:24:25.220Z,18.77
2022-11-14T22:26:53.471Z,18.75
2022-11-14T22:29:21.773Z,21.13
2022-11-14T22:31:52.829Z,22.20
2022-11-14T22:34:21.292Z,19.27
2022-11-14T22:36:49.607Z,17.42
2022-11-14T22:39:19.368Z,20.73
2022-11-14T22:41:48.380Z,20.57
2022-11-14T22:44:16.746Z,18.13
2022-11-14T22:46:45.007Z,16.50
2022-11-14T22:49:17.161Z,16.85
2022-11-14T22:51:48.245Z,15.98
2022-11-14T22:54:16.568Z,16.80
2022-11-14T22:56:46.299Z,16.90
2022-11-14T22:59:14.626Z,15.83
2022-11-14T23:01:43.896Z,15.13
2022-11-14T23:04:12.259Z,17.95
2022-11-14T23:06:40.657Z,15.15
2022-11-14T23:09:09.025Z,15.20
2022-11-14T23:11:37.322Z,34.35
2022-11-14T23:14:07.066Z,27.52
2022-11-14T23:16:35.926Z,76.07
2022-11-14T23:19:05.726Z,29.98
2022-11-14T23:21:36.269Z,63.58
2022-11-14T23:24:06.649Z,32.08
2022-11-14T23:26:35.197Z,33.58
2022-11-14T23:29:03.607Z,31.40
2022-11-14T23:31:33.321Z,29.52
2022-11-14T23:34:02.971Z,24.00
2022-11-14T23:36:31.326Z,21.45
2022-11-14T23:38:59.621Z,17.88
2022-11-14T23:41:27.950Z,16.80
2022-11-14T23:43:56.292Z,16.58
2022-11-14T23:46:24.557Z,17.30
2022-11-14T23:48:54.471Z,17.27
2022-11-14T23:51:22.759Z,17.63
2022-11-14T23:53:52.019Z,19.30
2022-11-14T23:56:20.331Z,17.13
2022-11-14T23:58:48.646Z,15.80
